Time;durP1;ratioP1;P1;durP2;ratioP2;P2;SDS_P1;SDS_P2;PMS_P1;PMS_P2;Temp;Humidity;BMP_temperature;BMP_pressure;BME280_temperature;BME280_humidity;BME280_pressure;Samples;Min_cycle;Max_cycle;Signal;HPM_P1;HPM_P2
2021/08/23 11:16:07;;;;;;;9.55;5.07;;;;;;;17.83;93.31;99464.59;5143431;27;20380;-84
2021/08/23 11:18:41;;;;;;;6.22;4.22;;;;;;;18.15;93.15;99473.63;5135645;27;20054;-82
2021/08/23 11:21:16;;;;;;;6.43;3.40;;;;;;;18.26;91.28;99469.31;5111801;28;20477;-81
2021/08/23 11:23:45;;;;;;;4.95;3.97;;;;;;;18.60;90.99;99478.00;5121920;28;20551;-82
2021/08/23 11:26:21;;;;;;;7.43;3.28;;;;;;;18.80;90.56;99468.66;5131747;27;20055;-84
2021/08/23 11:28:49;;;;;;;7.05;3.80;;;;;;;18.95;87.79;99457.28;5130968;27;20142;-84
2021/08/23 11:31:26;;;;;;;5.45;4.32;;;;;;;19.10;91.08;99454.94;5130643;27;20051;-84
2021/08/23 11:33:53;;;;;;;6.82;3.20;;;;;;;19.05;91.16;99450.13;5111418;27;20110;-84
2021/08/23 11:36:23;;;;;;;4.53;2.90;;;;;;;19.04;87.34;99437.41;5110848;28;20055;-85
2021/08/23 11:38:50;;;;;;;3.65;3.15;;;;;;;19.23;87.55;99453.91;5110234;28;20394;-85
2021/08/23 11:41:17;;;;;;;3.13;2.28;;;;;;;19.12;88.96;99438.16;5109467;28;20055;-85
2021/08/23 11:43:44;;;;;;;18.48;3.38;;;;;;;19.25;85.90;99460.03;5114045;27;20405;-83
2021/08/23 11:46:13;;;;;;;3.17;1.88;;;;;;;19.16;85.26;99451.25;5144502;27;20541;-82
2021/08/23 11:48:43;;;;;;;3.45;2.10;;;;;;;19.18;82.69;99428.97;5131063;27;20100;-83
2021/08/23 11:51:10;;;;;;;4.07;2.42;;;;;;;19.29;85.68;99425.41;5133051;27;20436;-82
2021/08/23 11:53:37;;;;;;;5.82;2.65;;;;;;;19.57;85.98;99432.16;5137457;27;20047;-83
2021/08/23 11:56:06;;;;;;;3.97;3.10;;;;;;;19.85;82.69;99433.44;5149737;27;20571;-83
2021/08/23 11:58:39;;;;;;;3.35;2.20;;;;;;;20.06;83.05;99434.75;5139814;27;20055;-82
2021/08/23 12:01:07;;;;;;;3.35;2.25;;;;;;;19.98;81.89;99436.78;5138764;27;20100;-83
2021/08/23 12:03:37;;;;;;;3.83;1.83;;;;;;;20.45;79.08;99424.84;5150014;27;20043;-84
2021/08/23 12:06:07;;;;;;;2.58;1.85;;;;;;;20.56;77.29;99445.25;5148380;27;20353;-83
2021/08/23 12:08:37;;;;;;;3.50;2.25;;;;;;;20.55;77.52;99432.53;5130977;27;20112;-83
2021/08/23 12:11:09;;;;;;;4.60;1.87;;;;;;;20.71;76.19;99442.00;5129266;27;20154;-84
2021/08/23 12:17:06;;;;;;;2.50;1.88;;;;;;;21.02;76.76;99439.84;5127857;27;20047;-84
2021/08/23 12:19:39;;;;;;;3.97;1.90;;;;;;;20.56;77.06;99442.47;5132510;27;20444;-84
2021/08/23 12:22:07;;;;;;;4.60;2.00;;;;;;;20.33;78.81;99437.84;5138400;27;20098;-84
2021/08/23 12:24:34;;;;;;;3.97;2.30;;;;;;;20.20;77.84;99429.81;5146295;27;20397;-84
2021/08/23 12:27:03;;;;;;;4.80;2.40;;;;;;;19.85;78.76;99426.00;5135547;27;20065;-84
2021/08/23 12:29:43;;;;;;;3.65;2.30;;;;;;;19.76;79.18;99433.75;5115190;28;20056;-84
2021/08/23 12:32:12;;;;;;;3.13;1.88;;;;;;;19.66;78.13;99422.50;5115667;28;20472;-83
2021/08/23 12:34:44;;;;;;;4.57;1.90;;;;;;;20.26;77.45;99434.38;5213083;22;20068;-83
2021/08/23 12:37:13;;;;;;;3.08;1.70;;;;;;;20.46;76.19;99415.50;5075005;28;20063;-83
2021/08/23 12:39:41;;;;;;;3.92;2.10;;;;;;;20.91;75.42;99430.53;5074523;28;20054;-84
2021/08/23 12:42:09;;;;;;;2.50;1.80;;;;;;;20.93;75.37;99420.06;5094655;28;20131;-83
2021/08/23 12:44:41;;;;;;;3.13;2.00;;;;;;;20.96;74.53;99425.09;5084452;28;20040;-83
2021/08/23 12:47:08;;;;;;;3.28;1.67;;;;;;;20.89;74.57;99418.03;5074678;28;20048;-84
2021/08/23 12:49:36;;;;;;;2.80;1.73;;;;;;;20.57;74.51;99427.59;5074142;28;20051;-83
2021/08/23 12:52:05;;;;;;;4.32;2.30;;;;;;;20.40;76.48;99415.63;5074276;28;20515;-83
2021/08/23 12:54:33;;;;;;;4.30;2.13;;;;;;;20.51;74.74;99399.03;5074468;28;20049;-83
2021/08/23 12:57:00;;;;;;;3.25;1.80;;;;;;;20.92;72.45;99414.78;5065694;28;20049;-83
2021/08/23 12:59:49;;;;;;;3.80;2.35;;;;;;;21.39;70.14;99414.53;5094121;28;20446;-83
2021/08/23 13:02:17;;;;;;;2.65;1.95;;;;;;;21.59;69.11;99405.78;5077354;28;20048;-83
2021/08/23 13:04:44;;;;;;;2.47;2.13;;;;;;;21.58;68.77;99397.75;5073972;28;20388;-83
2021/08/23 13:07:11;;;;;;;2.80;1.85;;;;;;;21.70;68.71;99406.78;5073515;28;20060;-83
2021/08/23 13:09:39;;;;;;;2.95;1.80;;;;;;;21.90;67.51;99407.09;5074076;28;20044;-83
2021/08/23 13:12:08;;;;;;;3.15;2.10;;;;;;;21.33;67.70;99413.63;5073692;28;20060;-83
2021/08/23 13:14:35;;;;;;;4.28;2.20;;;;;;;21.48;68.80;99392.81;5069109;28;20045;-82
2021/08/23 13:17:02;;;;;;;2.17;1.70;;;;;;;21.55;66.37;99410.97;5073255;28;20052;-83
2021/08/23 13:19:32;;;;;;;3.53;2.58;;;;;;;21.19;69.50;99399.25;5073902;28;20056;-82
2021/08/23 13:22:02;;;;;;;2.83;2.05;;;;;;;21.12;68.09;99386.69;5073068;28;20515;-83
2021/08/23 13:24:29;;;;;;;;;;;;;;;21.58;68.39;99409.63;5073062;28;20045;-83
2021/08/23 13:26:58;;;;;;;2.20;1.73;;;;;;;21.83;65.92;99392.59;5073772;28;20405;-82
2021/08/23 13:29:25;;;;;;;2.78;1.88;;;;;;;21.86;66.79;99407.84;5073823;28;20458;-83
2021/08/23 13:31:54;;;;;;;2.45;2.00;;;;;;;21.68;66.28;99408.94;5069394;28;20056;-82
2021/08/23 13:34:23;;;;;;;2.90;1.88;;;;;;;21.23;65.08;99399.59;5071967;28;20388;-82
2021/08/23 13:36:50;;;;;;;6.30;2.08;;;;;;;21.14;68.50;99418.53;5072973;28;20052;-82
2021/08/23 13:39:20;;;;;;;3.63;1.77;;;;;;;21.05;69.81;99406.19;5073086;28;20131;-82
2021/08/23 13:41:48;;;;;;;10.45;2.30;;;;;;;21.39;69.41;99379.44;5073208;28;20048;-83
2021/08/23 13:44:16;;;;;;;2.78;2.10;;;;;;;21.94;68.14;99385.28;5075183;28;20051;-82
2021/08/23 13:46:43;;;;;;;2.30;2.10;;;;;;;21.98;67.05;99403.06;5086791;28;20135;-82
2021/08/23 13:49:13;;;;;;;5.20;2.05;;;;;;;21.67;65.61;99393.44;5071947;28;20059;-82
2021/08/23 13:51:40;;;;;;;;;;;;;;;21.66;67.32;99400.06;5073268;28;20098;-82
2021/08/23 13:54:07;;;;;;;3.28;2.22;;;;;;;22.05;65.03;99391.78;5072495;28;19964;-82
2021/08/23 13:56:38;;;;;;;2.30;1.90;;;;;;;21.96;61.93;99388.63;5073116;28;20056;-83
2021/08/23 13:59:07;;;;;;;3.03;2.10;;;;;;;21.70;64.22;99404.00;5072798;28;20049;-82
2021/08/23 14:01:37;;;;;;;3.50;2.00;;;;;;;21.66;63.92;99381.53;5089606;28;20135;-83
2021/08/23 14:04:04;;;;;;;4.68;2.35;;;;;;;21.98;66.80;99378.16;5082012;28;20060;-82
2021/08/23 14:06:31;;;;;;;2.33;1.92;;;;;;;22.68;65.72;99386.00;5053261;28;20142;-82
2021/08/23 14:09:03;;;;;;;2.22;1.75;;;;;;;22.90;60.82;99378.47;5055748;28;20398;-82
2021/08/23 14:11:43;;;;;;;2.55;2.20;;;;;;;22.79;61.36;99387.78;5072726;28;20491;-82
2021/08/23 14:14:15;;;;;;;3.58;1.70;;;;;;;22.59;61.11;99380.06;5072029;28;20044;-83
2021/08/23 14:16:43;;;;;;;3.10;1.65;;;;;;;22.39;62.27;99381.50;5072562;28;20048;-82
2021/08/23 14:19:10;;;;;;;4.72;2.08;;;;;;;22.21;61.39;99382.63;5086686;28;20055;-82
2021/08/23 14:21:37;;;;;;;2.53;2.00;;;;;;;22.09;63.34;99382.72;5060186;28;20492;-82
2021/08/23 14:24:05;;;;;;;3.95;1.90;;;;;;;22.45;64.86;99369.38;5072037;28;20102;-82
2021/08/23 14:26:43;;;;;;;2.90;1.60;;;;;;;22.85;61.44;99360.97;5072633;28;20135;-82
2021/08/23 14:29:16;;;;;;;2.53;1.85;;;;;;;23.19;60.33;99369.91;5072572;28;20052;-81
2021/08/23 14:31:45;;;;;;;4.00;2.30;;;;;;;23.42;60.32;99379.81;5072869;28;20049;-83
2021/08/23 14:34:12;;;;;;;3.25;2.10;;;;;;;23.49;60.77;99368.53;5073245;28;20106;-80
2021/08/23 14:36:40;;;;;;;4.55;2.08;;;;;;;23.63;61.02;99374.44;5072785;28;20052;-83
2021/08/23 14:39:07;;;;;;;3.28;2.22;;;;;;;23.57;60.18;99367.19;5065382;28;20044;-81
2021/08/23 14:41:35;;;;;;;5.10;2.17;;;;;;;23.48;57.63;99375.97;5072371;28;20079;-82
2021/08/23 14:44:02;;;;;;;3.28;2.22;;;;;;;23.21;60.20;99380.75;5071624;28;20048;-82
2021/08/23 14:46:31;;;;;;;4.68;2.50;;;;;;;23.27;60.79;99380.53;5071765;28;20049;-82
2021/08/23 14:49:04;;;;;;;3.47;2.10;;;;;;;23.14;61.23;99376.25;5072193;28;20040;-82
2021/08/23 14:51:32;;;;;;;3.95;2.50;;;;;;;23.26;60.28;99375.25;5072533;28;20495;-82
2021/08/23 14:54:08;;;;;;;3.00;2.17;;;;;;;23.29;59.79;99372.78;5068998;28;20052;-81
2021/08/23 14:56:37;;;;;;;4.80;2.30;;;;;;;23.16;58.74;99381.53;5074411;28;20123;-82
2021/08/23 14:59:04;;;;;;;3.25;1.90;;;;;;;23.14;59.47;99387.34;5072749;28;20084;-82
2021/08/23 15:01:32;;;;;;;3.83;2.92;;;;;;;22.50;61.65;99376.09;5071534;28;20063;-82
2021/08/23 15:04:01;;;;;;;3.55;2.65;;;;;;;22.01;63.56;99391.47;5072049;28;20480;-82
2021/08/23 15:06:28;;;;;;;3.03;2.43;;;;;;;21.76;65.76;99396.63;5072934;28;20048;-81
2021/08/23 15:09:00;;;;;;;5.00;3.20;;;;;;;21.27;71.77;99391.63;5089217;28;20048;-81
2021/08/23 15:11:27;;;;;;;6.05;4.05;;;;;;;20.40;77.64;99426.66;5069703;28;20095;-83
2021/08/23 15:13:55;;;;;;;6.35;4.25;;;;;;;19.71;84.87;99421.78;5071702;28;20044;-83
2021/08/23 15:16:24;;;;;;;8.60;4.82;;;;;;;19.68;84.78;99417.56;5070978;28;20484;-82
2021/08/23 15:18:54;;;;;;;9.38;4.47;;;;;;;19.57;86.19;99410.97;5071272;28;20068;-82
2021/08/23 15:21:26;;;;;;;6.82;3.88;;;;;;;19.64;81.20;99413.59;5071692;28;20059;-83
2021/08/23 15:23:53;;;;;;;14.68;4.30;;;;;;;19.52;83.75;99402.56;5071207;28;20044;-82
2021/08/23 15:26:20;;;;;;;5.68;4.30;;;;;;;19.69;85.19;99405.47;5071793;28;20075;-83
2021/08/23 15:41:03;;;;;;;6.97;4.30;;;;;;;20.00;84.88;99432.97;5021592;28;20094;-82
2021/08/23 15:43:36;;;;;;;6.13;4.80;;;;;;;19.97;84.97;99437.03;5050069;28;20058;-82
2021/08/23 15:46:12;;;;;;;8.52;5.35;;;;;;;19.58;84.37;99415.38;5079049;28;20188;-82
2021/08/23 15:48:43;;;;;;;7.68;5.53;;;;;;;19.42;83.98;99411.41;5067220;28;20407;-85
2021/08/23 15:53:56;;;;;;;8.98;5.13;;;;;;;19.14;87.59;99414.00;5068288;28;20062;-82
2021/08/23 15:59:23;;;;;;;9.60;4.75;;;;;;;19.05;88.14;99410.72;5061642;28;20063;-82
2021/08/23 16:01:50;;;;;;;5.30;4.35;;;;;;;19.06;87.13;99416.00;5072746;28;20052;-82
2021/08/23 16:04:18;;;;;;;6.60;4.13;;;;;;;19.11;84.26;99429.06;5073477;28;20499;-82
2021/08/23 16:06:46;;;;;;;5.85;4.40;;;;;;;19.09;85.35;99429.31;5073959;28;20049;-83
2021/08/23 16:09:13;;;;;;;11.15;4.68;;;;;;;19.05;86.80;99424.50;5073416;28;20098;-83
2021/08/23 16:11:42;;;;;;;4.70;4.20;;;;;;;19.01;85.94;99409.50;5073414;28;20072;-82
2021/08/23 16:14:10;;;;;;;6.25;4.40;;;;;;;18.99;86.91;99428.19;5073512;28;20047;-82
2021/08/23 16:16:37;;;;;;;6.18;4.15;;;;;;;18.89;86.30;99414.97;5061129;28;20519;-83
2021/08/23 16:19:04;;;;;;;5.00;4.50;;;;;;;18.95;86.95;99430.56;5073286;28;20518;-82
2021/08/23 16:21:32;;;;;;;5.28;3.80;;;;;;;18.89;85.25;99426.84;5073942;28;20071;-82
2021/08/23 16:23:59;;;;;;;6.50;3.60;;;;;;;18.78;84.68;99419.31;5074248;28;20044;-83
2021/08/23 16:26:26;;;;;;;4.70;4.07;;;;;;;18.73;86.63;99442.06;5073523;28;20098;-83
2021/08/23 16:28:55;;;;;;;5.32;4.07;;;;;;;18.69;87.79;99428.97;5072863;28;20123;-83
2021/08/23 16:31:28;;;;;;;5.85;4.32;;;;;;;18.77;88.26;99412.13;5073724;28;20049;-82
2021/08/23 16:33:55;;;;;;;4.82;3.72;;;;;;;19.00;88.41;99447.25;5077750;28;20044;-83
2021/08/23 16:36:23;;;;;;;5.20;3.85;;;;;;;18.97;88.01;99436.69;5092548;28;20043;-83
2021/08/23 16:38:50;;;;;;;5.45;4.20;;;;;;;18.91;87.74;99432.13;5094606;28;20411;-83
2021/08/23 16:44:32;;;;;;;10.43;3.72;;;;;;;18.75;86.57;99426.13;5093185;28;20471;-83
2021/08/23 16:46:59;;;;;;;5.97;3.55;;;;;;;18.96;86.12;99431.41;5093542;28;20156;-83
2021/08/23 16:49:27;;;;;;;4.38;3.60;;;;;;;18.90;87.85;99422.16;5093163;28;20055;-83
2021/08/23 16:51:57;;;;;;;4.28;3.88;;;;;;;18.75;89.27;99434.38;5093024;28;20052;-83
2021/08/23 16:54:28;;;;;;;;;;;;;;;18.78;88.66;99437.78;5094229;28;20048;-83
2021/08/23 16:59:59;;;;;;;4.68;4.22;;;;;;;18.43;88.63;99454.91;5069173;28;20071;-81
2021/08/23 17:02:26;;;;;;;15.60;5.93;;;;;;;18.28;92.71;99469.91;5075784;28;20083;-84
2021/08/23 17:04:53;;;;;;;10.20;4.50;;;;;;;17.95;94.01;99462.00;5083340;28;20083;-84
2021/08/23 17:07:28;;;;;;;7.45;4.22;;;;;;;17.84;93.63;99469.88;5090027;28;20072;-82
2021/08/23 17:09:55;;;;;;;6.22;4.88;;;;;;;17.75;94.22;99440.13;5090373;28;20048;-82
2021/08/23 17:12:22;;;;;;;5.68;4.97;;;;;;;17.73;95.65;99453.25;5092714;28;20044;-82
2021/08/23 17:14:49;;;;;;;6.32;4.53;;;;;;;17.85;94.07;99454.19;5092044;28;20059;-82
2021/08/23 17:17:18;;;;;;;8.68;4.43;;;;;;;17.67;94.33;99450.34;5092209;28;20123;-82
2021/08/23 17:19:52;;;;;;;7.13;4.78;;;;;;;17.81;97.11;99452.97;5092544;28;20087;-82
2021/08/23 17:22:19;;;;;;;6.28;4.30;;;;;;;18.02;93.11;99466.34;5082323;28;20063;-82
2021/08/23 17:24:47;;;;;;;7.15;4.43;;;;;;;17.91;93.79;99469.00;5092906;28;20044;-82
2021/08/23 17:27:18;;;;;;;5.18;4.10;;;;;;;17.71;96.51;99466.41;5092164;28;20048;-82
2021/08/23 17:30:06;;;;;;;7.50;5.25;;;;;;;17.86;94.63;99456.72;5092245;28;20043;-82
2021/08/23 17:44:34;;;;;;;6.93;5.10;;;;;;;17.67;97.35;99471.50;4964509;28;20133;-82
2021/08/23 17:47:12;;;;;;;6.85;5.03;;;;;;;17.59;97.67;99474.53;4952266;28;20140;-82
2021/08/23 17:49:41;;;;;;;7.18;4.90;;;;;;;17.61;96.25;99477.88;5002639;28;20053;-82
2021/08/23 17:52:20;;;;;;;6.82;4.70;;;;;;;17.69;96.84;99499.63;5029460;28;20041;-82
2021/08/23 17:55:11;;;;;;;7.00;4.53;;;;;;;17.49;96.44;99494.25;5046445;28;20053;-82
2021/08/23 17:58:14;;;;;;;7.03;4.97;;;;;;;17.47;98.89;99491.72;5026526;28;20093;-82
2021/08/23 18:00:42;;;;;;;8.00;6.22;;;;;;;17.45;95.61;99493.84;5047462;28;20393;-82
2021/08/23 18:03:09;;;;;;;6.70;5.53;;;;;;;17.42;98.08;99486.06;5036821;28;20049;-82
2021/08/23 18:05:38;;;;;;;7.00;5.35;;;;;;;17.65;96.83;99504.69;5066470;28;20074;-82
2021/08/23 18:08:06;;;;;;;11.35;5.82;;;;;;;17.60;97.18;99503.69;5088923;28;20098;-82
2021/08/23 18:10:33;;;;;;;7.03;5.78;;;;;;;17.63;98.14;99508.72;5091893;28;20426;-82
2021/08/23 18:13:00;;;;;;;7.78;5.63;;;;;;;17.56;97.56;99511.53;5091444;28;20046;-82
2021/08/23 18:15:49;;;;;;;8.30;6.22;;;;;;;17.51;96.51;99501.22;5091723;28;20051;-81
2021/08/23 18:18:17;;;;;;;11.80;7.07;;;;;;;17.46;97.58;99500.19;5091137;28;20062;-82
2021/08/23 18:20:46;;;;;;;8.23;6.43;;;;;;;17.54;98.82;99524.69;5092200;28;20467;-82
2021/08/23 18:23:13;;;;;;;11.23;6.45;;;;;;;17.44;99.57;99510.56;5091345;28;20052;-82
2021/08/23 18:25:41;;;;;;;10.32;7.25;;;;;;;17.56;100.00;99528.03;5091148;28;20064;-82
2021/08/23 18:28:08;;;;;;;9.30;6.78;;;;;;;17.42;99.47;99502.56;5091903;28;20044;-82
2021/08/23 18:30:36;;;;;;;8.57;6.13;;;;;;;17.50;99.17;99521.50;5091753;28;20072;-82
2021/08/23 18:33:03;;;;;;;9.68;7.25;;;;;;;17.34;100.00;99530.28;5091270;28;20075;-82
2021/08/23 18:35:30;;;;;;;8.60;7.18;;;;;;;17.38;98.89;99523.28;5091858;28;20102;-82
2021/08/23 18:37:59;;;;;;;8.05;6.93;;;;;;;17.13;99.98;99521.31;5091663;28;20044;-81
2021/08/23 18:40:26;;;;;;;10.65;7.50;;;;;;;17.15;100.00;99524.69;5092277;28;20231;-81
2021/08/23 18:42:53;;;;;;;10.63;8.32;;;;;;;17.09;100.00;99530.22;5091188;28;20050;-82
2021/08/23 18:48:37;;;;;;;10.00;7.57;;;;;;;16.98;100.00;99540.81;5072986;28;20055;-83
2021/08/23 18:51:26;;;;;;;12.65;8.18;;;;;;;16.87;100.00;99548.88;5089602;28;20059;-81
2021/08/23 18:54:20;;;;;;;11.52;8.30;;;;;;;16.81;100.00;99562.38;5089477;28;20050;-81
2021/08/23 19:03:03;;;;;;;5.97;4.78;;;;;;;16.72;96.22;99571.06;5079562;28;20142;-82
2021/08/23 19:05:30;;;;;;;5.55;4.10;;;;;;;16.63;93.71;99578.69;5092123;28;20448;-82
2021/08/23 19:11:03;;;;;;;4.57;3.35;;;;;;;16.53;92.60;99601.09;5709060;22;20522;-81
2021/08/23 19:13:30;;;;;;;3.78;3.22;;;;;;;16.45;93.96;99595.81;5071358;28;20060;-82
2021/08/23 19:16:01;;;;;;;4.72;3.30;;;;;;;16.41;93.28;99611.88;5070388;28;20071;-82
2021/08/23 19:18:31;;;;;;;3.58;3.00;;;;;;;16.34;93.96;99608.28;5070290;28;20472;-81
2021/08/23 19:21:04;;;;;;;3.30;2.78;;;;;;;16.27;91.94;99615.66;5070950;28;20057;-81
2021/08/23 19:23:31;;;;;;;8.35;3.47;;;;;;;16.12;92.87;99596.69;5070711;28;20052;-81
2021/08/23 19:25:59;;;;;;;10.30;3.63;;;;;;;16.19;94.45;99608.50;5070836;28;20052;-81
2021/08/23 19:28:28;;;;;;;5.75;3.35;;;;;;;16.24;94.82;99602.38;5071642;28;20048;-82
2021/08/23 19:30:57;;;;;;;5.57;3.53;;;;;;;16.16;94.97;99597.94;5071051;28;20052;-82
2021/08/23 19:33:28;;;;;;;6.07;4.00;;;;;;;16.31;96.53;99627.09;5070499;28;20041;-82
2021/08/23 19:35:55;;;;;;;4.47;3.60;;;;;;;16.21;93.48;99608.28;5071570;28;20059;-82
2021/08/23 19:38:25;;;;;;;7.75;3.97;;;;;;;16.07;95.88;99608.28;5075043;28;20048;-83
2021/08/23 19:40:52;;;;;;;5.55;3.63;;;;;;;16.21;94.05;99620.13;5074412;28;20048;-82
2021/08/23 19:43:22;;;;;;;4.65;3.83;;;;;;;16.27;96.00;99634.88;5081823;28;20083;-82
2021/08/23 19:45:51;;;;;;;4.15;3.58;;;;;;;16.35;93.88;99631.94;5074763;28;20158;-82
2021/08/23 19:48:18;;;;;;;4.75;3.33;;;;;;;16.27;93.26;99643.97;5074775;28;20051;-82
2021/08/23 19:50:45;;;;;;;5.45;3.70;;;;;;;16.11;94.13;99622.44;5074849;28;20130;-82
2021/08/23 19:53:12;;;;;;;4.35;3.13;;;;;;;15.90;94.48;99626.22;5074229;28;20041;-82
2021/08/23 19:55:40;;;;;;;12.00;5.15;;;;;;;16.11;95.30;99649.88;5074258;28;20059;-82
2021/08/23 19:58:21;;;;;;;4.97;3.40;;;;;;;16.10;93.28;99643.50;5073489;28;20498;-82
2021/08/23 20:00:49;;;;;;;3.83;3.30;;;;;;;15.91;93.47;99628.75;5073617;28;20499;-82
2021/08/23 20:03:16;;;;;;;4.10;3.03;;;;;;;16.06;93.45;99647.75;5074770;28;20049;-82
2021/08/23 20:05:44;;;;;;;6.43;3.92;;;;;;;15.85;94.65;99636.94;5073625;28;20052;-82
2021/08/23 20:08:11;;;;;;;5.93;3.78;;;;;;;15.93;92.97;99642.25;5073350;28;20110;-82
2021/08/23 20:10:39;;;;;;;5.32;3.45;;;;;;;15.97;92.39;99651.72;5072502;28;20044;-81
2021/08/23 20:13:12;;;;;;;5.68;3.50;;;;;;;15.92;92.59;99646.84;5073996;28;20099;-82
2021/08/23 20:15:43;;;;;;;6.00;3.63;;;;;;;15.99;92.88;99654.25;5072853;28;20044;-83
2021/08/23 20:18:13;;;;;;;6.45;3.83;;;;;;;15.72;94.41;99630.34;5070450;28;20404;-82
2021/08/23 20:20:41;;;;;;;3.97;3.08;;;;;;;15.88;92.49;99648.34;5073533;28;20483;-83
2021/08/23 20:23:10;;;;;;;5.70;3.28;;;;;;;15.81;92.34;99654.88;5073913;28;20080;-82
2021/08/23 20:25:45;;;;;;;5.22;3.70;;;;;;;15.76;94.08;99658.19;5072769;28;20052;-82
2021/08/23 20:28:14;;;;;;;5.82;3.42;;;;;;;15.65;94.90;99650.56;5074389;28;20081;-82
2021/08/23 20:30:44;;;;;;;4.75;3.50;;;;;;;15.62;93.04;99660.03;5073158;28;20118;-82
2021/08/23 20:33:22;;;;;;;4.35;3.67;;;;;;;15.56;93.63;99663.59;5073486;28;20131;-82
2021/08/23 20:36:11;;;;;;;8.82;3.80;;;;;;;15.40;93.95;99651.97;5073696;28;20071;-82
2021/08/23 20:38:39;;;;;;;5.97;3.28;;;;;;;15.62;93.79;99675.66;5075766;28;20075;-84
2021/08/23 20:41:10;;;;;;;7.50;3.30;;;;;;;15.51;93.73;99656.00;5071805;28;20044;-84
2021/08/23 20:43:42;;;;;;;5.57;3.58;;;;;;;15.58;91.84;99678.81;5074227;28;20036;-82
2021/08/23 20:46:11;;;;;;;4.38;3.38;;;;;;;15.40;94.20;99653.84;5072346;28;20040;-82
2021/08/23 20:48:40;;;;;;;7.18;3.20;;;;;;;15.55;95.71;99656.44;5072836;28;20048;-82
2021/08/23 20:51:11;;;;;;;6.63;4.43;;;;;;;15.39;96.80;99661.22;5078555;28;20127;-83
2021/08/23 20:53:42;;;;;;;4.85;3.30;;;;;;;15.27;98.65;99657.38;5079551;28;20044;-83
2021/08/23 20:56:58;;;;;;;4.50;3.58;;;;;;;15.15;98.93;99646.16;5073173;28;20056;-83
2021/08/23 20:59:25;;;;;;;6.97;4.15;;;;;;;15.36;98.11;99664.38;5075515;28;20044;-82
2021/08/23 21:01:54;;;;;;;4.93;3.70;;;;;;;15.05;98.70;99653.88;5071617;28;20395;-83
2021/08/23 21:04:21;;;;;;;4.07;3.40;;;;;;;15.08;100.00;99667.19;5071223;28;20575;-83
2021/08/23 21:06:49;;;;;;;3.83;3.45;;;;;;;14.91;100.00;99654.88;5073468;28;20194;-83
2021/08/23 21:09:16;;;;;;;8.45;3.42;;;;;;;14.96;100.00;99657.84;5073121;28;20063;-83
2021/08/23 21:11:46;;;;;;;6.28;3.08;;;;;;;14.94;100.00;99662.69;5080957;28;20057;-83
2021/08/23 21:14:14;;;;;;;6.95;3.75;;;;;;;15.03;100.00;99670.53;5080957;28;20072;-83
2021/08/23 21:16:43;;;;;;;6.07;3.40;;;;;;;15.11;98.78;99665.94;5072208;28;20454;-82
2021/08/23 21:19:18;;;;;;;7.88;3.80;;;;;;;15.04;98.52;99664.00;5087952;28;20086;-83
2021/08/23 21:21:47;;;;;;;5.43;3.80;;;;;;;14.73;100.00;99674.53;5073437;28;20048;-83
2021/08/23 21:24:16;;;;;;;5.07;3.63;;;;;;;14.73;100.00;99661.69;5071533;28;20098;-83
2021/08/23 21:26:43;;;;;;;21.33;4.68;;;;;;;14.65;99.96;99657.22;5082166;28;20052;-83
2021/08/23 21:29:16;;;;;;;4.18;3.47;;;;;;;14.63;100.00;99673.00;5086732;28;20037;-82
2021/08/23 21:31:43;;;;;;;8.80;3.53;;;;;;;14.63;100.00;99680.34;5066975;28;20095;-82
2021/08/23 21:34:12;;;;;;;7.80;3.80;;;;;;;14.58;100.00;99682.81;5072783;28;20614;-82
2021/08/23 21:36:40;;;;;;;6.03;3.40;;;;;;;14.68;100.00;99683.34;5071459;28;20082;-83
2021/08/23 21:39:09;;;;;;;5.90;3.95;;;;;;;14.52;100.00;99665.31;5070227;28;20132;-82
2021/08/23 21:41:40;;;;;;;5.32;3.67;;;;;;;14.52;100.00;99679.81;5071359;28;20052;-82
2021/08/23 21:44:10;;;;;;;9.70;4.03;;;;;;;14.40;100.00;99659.53;5071940;28;20064;-83
2021/08/23 21:46:46;;;;;;;5.85;3.50;;;;;;;14.54;100.00;99670.56;5069707;28;20052;-82
2021/08/23 21:50:01;;;;;;;5.40;4.05;;;;;;;14.44;100.00;99671.75;5072864;28;20044;-84
2021/08/23 21:52:30;;;;;;;5.93;3.83;;;;;;;14.42;100.00;99673.88;5054878;28;20052;-82
2021/08/23 21:54:57;;;;;;;11.57;4.30;;;;;;;14.49;100.00;99674.75;5069146;28;20057;-82
2021/08/23 21:57:31;;;;;;;4.57;3.55;;;;;;;14.57;100.00;99665.53;5071481;28;20048;-82
2021/08/23 21:59:58;;;;;;;7.57;3.63;;;;;;;14.49;100.00;99682.94;5067499;28;20049;-82
2021/08/23 22:02:26;;;;;;;7.22;3.63;;;;;;;14.44;100.00;99666.28;5079836;28;20052;-82
2021/08/23 22:04:53;;;;;;;10.98;3.85;;;;;;;14.51;100.00;99672.66;5071070;28;20059;-82
2021/08/23 22:07:43;;;;;;;5.43;3.53;;;;;;;14.48;100.00;99661.25;5068437;28;20052;-84
2021/08/23 22:10:17;;;;;;;4.60;3.60;;;;;;;14.46;100.00;99658.72;5065919;28;20139;-82
2021/08/23 22:12:54;;;;;;;3.60;3.30;;;;;;;14.36;100.00;99676.53;5071199;28;20128;-83
2021/08/23 22:15:25;;;;;;;4.32;3.47;;;;;;;14.24;100.00;99657.94;5071837;28;20049;-81
2021/08/23 22:17:53;;;;;;;4.13;3.58;;;;;;;14.16;100.00;99669.81;5070047;28;20439;-81
2021/08/23 22:21:10;;;;;;;5.43;3.63;;;;;;;14.27;100.00;99678.53;5070123;28;20052;-84
2021/08/23 22:23:43;;;;;;;6.03;3.50;;;;;;;14.05;100.00;99677.72;5064389;28;20075;-81
2021/08/23 22:57:55;;;;;;;6.22;4.65;;;;;;;14.01;100.00;99696.38;5049662;28;20049;-81
2021/08/23 23:00:27;;;;;;;6.50;5.38;;;;;;;14.07;100.00;99687.41;5066137;28;20128;-81
2021/08/23 23:02:54;;;;;;;5.43;4.50;;;;;;;14.12;100.00;99703.22;5040441;28;20144;-81
2021/08/23 23:05:24;;;;;;;7.05;4.90;;;;;;;14.04;100.00;99678.75;5057448;28;20056;-81
2021/08/23 23:07:52;;;;;;;6.57;4.78;;;;;;;14.10;100.00;99692.47;5051078;28;20053;-82
2021/08/23 23:10:40;;;;;;;7.05;4.90;;;;;;;14.24;100.00;99704.41;5048420;28;20434;-84
2021/08/23 23:13:11;;;;;;;8.20;4.70;;;;;;;14.27;100.00;99701.28;5051220;28;20056;-82
2021/08/23 23:15:39;;;;;;;8.77;4.38;;;;;;;14.25;100.00;99686.13;5051947;28;20068;-81
2021/08/23 23:18:06;;;;;;;5.88;4.72;;;;;;;14.21;100.00;99682.94;5053715;28;20052;-82
2021/08/23 23:20:33;;;;;;;8.05;4.75;;;;;;;14.14;100.00;99690.22;5056931;28;20040;-81
2021/08/23 23:23:01;;;;;;;8.35;4.53;;;;;;;14.25;100.00;99702.53;5053966;28;20044;-81
2021/08/23 23:25:28;;;;;;;8.55;4.72;;;;;;;14.24;100.00;99698.94;5051662;28;20048;-81
2021/08/23 23:27:55;;;;;;;7.30;4.72;;;;;;;14.19;100.00;99709.59;5060131;28;20056;-81
2021/08/23 23:30:26;;;;;;;14.48;4.80;;;;;;;14.20;100.00;99683.13;5051989;28;20045;-81
2021/08/23 23:32:54;;;;;;;7.88;4.75;;;;;;;14.21;100.00;99702.06;5049014;28;20048;-81
2021/08/23 23:35:21;;;;;;;5.05;3.95;;;;;;;14.07;100.00;99692.03;5052055;28;20124;-81
2021/08/23 23:37:52;;;;;;;5.47;4.38;;;;;;;14.27;100.00;99708.63;5051671;28;20045;-81
2021/08/23 23:43:47;;;;;;;5.97;4.30;;;;;;;14.26;100.00;99698.75;5027421;28;20053;-80
2021/08/23 23:46:15;;;;;;;7.78;4.70;;;;;;;14.18;100.00;99690.66;5052657;28;20045;-81
2021/08/23 23:48:45;;;;;;;7.15;5.03;;;;;;;14.09;100.00;99696.28;5052602;28;20041;-82
2021/08/23 23:51:12;;;;;;;;;;;;;;;13.96;100.00;99713.38;5058326;28;20060;-81
2021/08/23 23:53:48;;;;;;;8.50;4.50;;;;;;;13.79;100.00;99685.44;5050933;28;20379;-82
2021/08/23 23:56:27;;;;;;;6.25;4.75;;;;;;;13.97;100.00;99704.16;5052467;28;20492;-81
2021/08/23 23:58:54;;;;;;;5.90;4.63;;;;;;;13.90;100.00;99696.91;5051099;28;20451;-80
